Time;durP1;ratioP1;P1;durP2;ratioP2;P2;SDS_P1;SDS_P2;PMS_P1;PMS_P2;Temp;Humidity;BMP_temperature;BMP_pressure;BME280_temperature;BME280_humidity;BME280_pressure;Samples;Min_cycle;Max_cycle;Signal;HPM_P1;HPM_P2
2024/01/22 00:01:16;;;;;;;21.45;20.42;;;7.10;99.90;;;;;;4840178;29;20445;-88
2024/01/22 00:03:42;;;;;;;22.15;21.05;;;7.10;99.90;;;;;;4832617;29;20083;-90
2024/01/22 00:06:08;;;;;;;18.65;17.75;;;7.10;99.90;;;;;;4822178;29;20612;-84
2024/01/22 00:08:33;;;;;;;92.25;87.32;;;7.00;99.90;;;;;;4839485;29;20076;-88
2024/01/22 00:10:59;;;;;;;27.17;25.52;;;7.10;99.90;;;;;;4826514;29;20038;-83
2024/01/22 00:13:25;;;;;;;52.15;49.50;;;7.00;99.90;;;;;;4860845;29;20111;-89
2024/01/22 00:15:50;;;;;;;21.30;20.27;;;7.00;99.90;;;;;;4844705;29;20137;-86
2024/01/22 00:18:16;;;;;;;23.15;21.98;;;7.10;99.90;;;;;;4838585;29;20111;-85
2024/01/22 00:20:42;;;;;;;17.08;16.15;;;7.10;99.90;;;;;;4830110;29;20094;-84
2024/01/22 00:23:07;;;;;;;19.85;18.75;;;7.10;99.90;;;;;;4827412;29;20046;-87
2024/01/22 00:25:33;;;;;;;35.33;33.65;;;7.10;99.90;;;;;;4829439;29;20118;-88
2024/01/22 00:27:59;;;;;;;39.92;38.13;;;7.30;99.90;;;;;;4839666;29;20034;-84
2024/01/22 00:30:25;;;;;;;38.70;36.90;;;7.30;99.90;;;;;;4843282;29;20050;-84
2024/01/22 00:32:51;;;;;;;42.78;40.85;;;7.40;99.90;;;;;;4831617;29;20078;-85
2024/01/22 00:35:17;;;;;;;24.42;23.20;;;7.40;99.90;;;;;;4825165;29;20055;-81
2024/01/22 00:37:43;;;;;;;26.27;24.95;;;7.30;99.90;;;;;;4862420;29;20046;-88
2024/01/22 00:40:09;;;;;;;17.63;16.80;;;7.40;99.90;;;;;;4828471;29;20030;-85
2024/01/22 00:42:35;;;;;;;24.10;22.90;;;7.40;99.90;;;;;;4831545;29;20042;-90
2024/01/22 00:45:01;;;;;;;28.65;27.25;;;7.40;99.90;;;;;;4843179;29;20057;-82
2024/01/22 00:47:27;;;;;;;14.40;13.68;;;7.40;99.90;;;;;;4828635;29;20054;-85
2024/01/22 00:49:53;;;;;;;22.70;21.58;;;7.40;99.90;;;;;;4842908;29;20110;-84
2024/01/22 00:52:18;;;;;;;36.55;34.95;;;7.30;99.90;;;;;;4844586;29;20046;-87
2024/01/22 00:54:44;;;;;;;19.10;18.10;;;7.30;99.90;;;;;;4846335;29;20050;-89
2024/01/22 00:57:10;;;;;;;40.75;38.58;;;7.40;99.90;;;;;;4820670;29;20136;-85
2024/01/22 00:59:36;;;;;;;33.90;32.10;;;7.40;99.90;;;;;;4843658;29;20041;-87
2024/01/22 01:02:03;;;;;;;100.70;93.63;;;7.60;99.90;;;;;;4845846;29;20054;-89
2024/01/22 01:04:29;;;;;;;35.00;33.38;;;7.50;99.90;;;;;;4837600;29;20118;-87
2024/01/22 01:06:54;;;;;;;22.50;21.45;;;7.60;99.90;;;;;;4843277;29;20054;-84
2024/01/22 01:09:20;;;;;;;11.07;10.38;;;7.60;99.90;;;;;;4848247;29;20065;-82
2024/01/22 01:11:45;;;;;;;31.85;30.40;;;7.70;99.90;;;;;;4828107;29;20042;-86
2024/01/22 01:14:11;;;;;;;17.83;16.92;;;7.70;99.90;;;;;;4831792;29;20072;-88
2024/01/22 01:16:37;;;;;;;42.33;40.33;;;7.70;99.90;;;;;;4828724;29;20049;-85
2024/01/22 01:19:02;;;;;;;41.28;39.00;;;7.70;99.90;;;;;;4843929;29;20054;-82
2024/01/22 01:21:28;;;;;;;15.38;14.57;;;7.70;99.90;;;;;;4845215;29;20046;-83
2024/01/22 01:23:54;;;;;;;27.98;26.60;;;7.70;99.90;;;;;;4830522;29;20562;-86
2024/01/22 01:26:19;;;;;;;22.15;21.05;;;7.80;99.90;;;;;;4850843;29;20045;-83
2024/01/22 01:28:45;;;;;;;9.60;8.90;;;7.80;99.90;;;;;;4829242;29;20046;-80
2024/01/22 01:31:11;;;;;;;21.13;20.13;;;7.70;99.90;;;;;;4846106;29;20562;-85
2024/01/22 01:33:36;;;;;;;20.23;19.27;;;7.70;99.90;;;;;;4848581;29;20092;-86
2024/01/22 01:36:02;;;;;;;17.05;16.05;;;7.70;99.90;;;;;;4833720;29;20046;-88
2024/01/22 01:38:28;;;;;;;25.15;23.90;;;7.80;99.90;;;;;;4829552;29;20058;-86
2024/01/22 01:40:54;;;;;;;44.97;42.97;;;7.80;99.90;;;;;;4829573;29;20050;-83
2024/01/22 01:43:19;;;;;;;42.20;40.28;;;7.90;99.90;;;;;;4829602;29;20043;-85
2024/01/22 01:45:45;;;;;;;14.30;13.48;;;7.90;99.90;;;;;;4847597;29;20054;-81
2024/01/22 01:48:13;;;;;;;32.85;31.17;;;8.00;99.90;;;;;;4840417;29;20058;-84
2024/01/22 01:50:39;;;;;;;26.52;25.33;;;8.00;99.90;;;;;;4829465;29;20057;-84
2024/01/22 01:53:05;;;;;;;17.17;16.15;;;8.00;99.90;;;;;;4846562;29;20046;-88
2024/01/22 01:55:31;;;;;;;17.23;16.35;;;8.00;99.90;;;;;;4827908;29;20046;-91
2024/01/22 01:57:59;;;;;;;35.55;33.80;;;8.00;99.90;;;;;;4830992;29;20053;-87
2024/01/22 02:00:25;;;;;;;27.48;26.10;;;8.00;99.90;;;;;;4841302;29;20042;-83
2024/01/22 02:02:51;;;;;;;27.77;26.50;;;8.00;99.90;;;;;;4848910;29;20058;-84
2024/01/22 02:05:17;;;;;;;30.17;28.77;;;7.90;99.90;;;;;;4835051;29;20097;-86
2024/01/22 02:07:43;;;;;;;99.68;93.07;;;7.90;99.90;;;;;;4829493;29;20058;-89
2024/01/22 02:10:15;;;;;;;27.40;26.15;;;8.00;99.90;;;;;;4830343;29;20045;-86
2024/01/22 02:12:40;;;;;;;28.83;27.48;;;8.00;99.90;;;;;;4827892;29;20049;-85
2024/01/22 02:15:06;;;;;;;19.70;18.63;;;7.90;99.90;;;;;;4823658;29;20034;-88
2024/01/22 02:17:32;;;;;;;17.88;17.08;;;7.90;99.90;;;;;;4829556;29;20128;-86
2024/01/22 02:19:58;;;;;;;48.67;46.35;;;7.80;99.90;;;;;;4838179;29;20047;-87
2024/01/22 02:22:24;;;;;;;26.15;24.75;;;7.90;99.90;;;;;;4847095;29;20107;-88
2024/01/22 02:24:49;;;;;;;41.42;39.25;;;7.90;99.90;;;;;;4848670;29;20050;-90
2024/01/22 02:27:15;;;;;;;49.25;46.83;;;7.90;99.90;;;;;;4834321;29;20160;-90
2024/01/22 02:29:41;;;;;;;49.50;47.30;;;7.90;99.90;;;;;;4822298;29;20049;-86
2024/01/22 02:32:07;;;;;;;31.35;29.95;;;7.90;99.90;;;;;;4864191;29;20046;-84
2024/01/22 02:34:33;;;;;;;13.13;12.40;;;7.90;99.90;;;;;;4820470;29;20049;-85
2024/01/22 02:36:58;;;;;;;32.25;30.65;;;7.80;99.90;;;;;;4848735;29;20138;-89
2024/01/22 02:39:24;;;;;;;63.50;60.13;;;7.80;99.90;;;;;;4828596;29;20054;-90
2024/01/22 02:41:50;;;;;;;71.88;65.72;;;7.80;99.90;;;;;;4847201;29;20070;-90
2024/01/22 02:44:16;;;;;;;20.45;19.27;;;7.90;99.90;;;;;;4842939;29;20037;-91
2024/01/22 02:46:41;;;;;;;16.58;15.52;;;8.00;99.90;;;;;;4829680;29;20093;-85
2024/01/22 02:49:10;;;;;;;27.40;25.98;;;7.90;99.90;;;;;;4846283;29;20061;-88
2024/01/22 02:51:36;;;;;;;27.10;25.73;;;7.90;99.90;;;;;;4847889;29;20084;-87
2024/01/22 02:54:04;;;;;;;13.25;12.57;;;7.80;99.90;;;;;;4846427;29;20103;-85
2024/01/22 02:56:30;;;;;;;29.17;27.80;;;7.90;99.90;;;;;;4817078;29;20091;-82
2024/01/22 02:58:56;;;;;;;20.58;19.48;;;7.80;99.90;;;;;;4846758;29;20046;-85
2024/01/22 03:01:22;;;;;;;17.75;16.63;;;7.80;99.90;;;;;;4849050;29;20384;-84
2024/01/22 03:03:47;;;;;;;19.15;18.13;;;7.80;99.90;;;;;;4832041;29;20046;-86
2024/01/22 03:06:13;;;;;;;29.52;27.77;;;7.90;99.90;;;;;;4845439;29;20083;-86
2024/01/22 03:08:39;;;;;;;18.70;17.65;;;7.90;99.90;;;;;;4835158;29;20034;-82
2024/01/22 03:11:04;;;;;;;69.90;66.22;;;7.90;99.90;;;;;;4824768;29;20413;-85
2024/01/22 03:13:30;;;;;;;26.02;24.67;;;8.00;99.90;;;;;;4849114;29;20082;-85
2024/01/22 03:15:56;;;;;;;21.85;20.83;;;8.00;99.90;;;;;;4830515;29;20047;-89
2024/01/22 03:18:21;;;;;;;44.30;42.33;;;8.00;99.90;;;;;;4846737;29;20392;-87
2024/01/22 03:20:47;;;;;;;65.15;61.72;;;8.00;99.90;;;;;;4849117;29;20042;-85
2024/01/22 03:23:13;;;;;;;28.42;27.17;;;7.90;99.90;;;;;;4823959;29;20046;-88
2024/01/22 03:25:38;;;;;;;72.78;69.05;;;8.00;99.90;;;;;;4849502;29;20046;-84
2024/01/22 03:28:04;;;;;;;21.70;20.48;;;8.00;99.90;;;;;;4829840;29;20109;-88
2024/01/22 03:30:30;;;;;;;20.42;19.52;;;8.00;99.90;;;;;;4832564;29;20042;-90
2024/01/22 03:32:56;;;;;;;35.95;34.40;;;8.00;99.90;;;;;;4838552;29;20125;-84
2024/01/22 03:35:22;;;;;;;26.15;24.83;;;8.00;99.90;;;;;;4848956;29;20038;-89
2024/01/22 03:37:48;;;;;;;21.98;21.08;;;8.00;99.90;;;;;;4842424;29;20074;-85
2024/01/22 03:40:14;;;;;;;42.35;40.40;;;8.00;99.90;;;;;;4827773;29;20050;-90
2024/01/22 03:42:40;;;;;;;27.95;26.75;;;8.00;99.90;;;;;;4816652;29;20054;-90
2024/01/22 03:45:06;;;;;;;26.55;25.45;;;8.00;99.90;;;;;;4828200;29;20110;-88
2024/01/22 03:47:32;;;;;;;39.03;36.97;;;8.00;99.90;;;;;;4847190;29;20057;-82
2024/01/22 03:49:58;;;;;;;31.85;30.20;;;8.00;99.90;;;;;;4847852;29;20046;-85
2024/01/22 03:52:23;;;;;;;40.03;38.35;;;8.00;99.90;;;;;;4833276;29;20046;-90
2024/01/22 03:54:49;;;;;;;44.60;42.70;;;8.00;99.90;;;;;;4846564;29;20050;-86
2024/01/22 03:57:15;;;;;;;27.55;24.98;;;8.00;99.90;;;;;;4844890;29;20038;-88
2024/01/22 03:59:41;;;;;;;41.05;39.25;;;8.00;99.90;;;;;;4846750;29;20472;-88
2024/01/22 04:02:07;;;;;;;31.85;30.58;;;8.10;99.90;;;;;;4830876;29;20038;-86
2024/01/22 04:04:34;;;;;;;29.10;28.00;;;8.00;99.90;;;;;;4846187;29;20051;-82
2024/01/22 04:06:59;;;;;;;37.25;35.70;;;8.00;99.90;;;;;;4860230;29;20441;-86
2024/01/22 04:09:25;;;;;;;64.75;61.58;;;8.10;99.90;;;;;;4846009;29;20057;-89
2024/01/22 04:11:51;;;;;;;39.95;38.30;;;8.10;99.90;;;;;;4829647;29;20117;-86
2024/01/22 04:14:16;;;;;;;36.83;35.42;;;8.10;99.90;;;;;;4844958;29;20129;-86
2024/01/22 04:16:44;;;;;;;36.78;35.38;;;8.10;99.90;;;;;;4861019;29;20057;-87
2024/01/22 04:19:10;;;;;;;52.92;50.92;;;8.10;99.90;;;;;;4825053;29;20129;-88
2024/01/22 04:21:46;;;;;;;54.08;50.80;;;8.10;99.90;;;;;;4834126;29;20045;-86
2024/01/22 04:24:12;;;;;;;64.55;61.83;;;8.20;99.90;;;;;;4823228;29;20050;-90
2024/01/22 04:26:38;;;;;;;43.58;41.88;;;8.20;99.90;;;;;;4840529;29;20049;-89
2024/01/22 04:29:04;;;;;;;61.22;58.90;;;8.20;99.90;;;;;;4844436;29;20607;-89
2024/01/22 04:31:30;;;;;;;70.05;65.85;;;8.20;99.90;;;;;;4823515;29;20053;-88
2024/01/22 04:33:56;;;;;;;57.13;55.00;;;8.30;99.90;;;;;;4860341;29;20061;-85
2024/01/22 04:36:21;;;;;;;63.33;60.95;;;8.30;99.90;;;;;;4827122;29;20585;-90
2024/01/22 04:38:47;;;;;;;70.55;67.75;;;8.30;99.90;;;;;;4838501;29;20074;-88
2024/01/22 04:41:13;;;;;;;56.35;54.28;;;8.30;99.90;;;;;;4827797;29;20045;-88
2024/01/22 04:43:39;;;;;;;57.67;55.60;;;8.40;99.90;;;;;;4848281;29;20054;-88
2024/01/22 04:46:06;;;;;;;45.88;44.20;;;8.40;99.90;;;;;;4827168;29;20495;-88
2024/01/22 04:48:32;;;;;;;82.53;79.05;;;8.40;99.90;;;;;;4847514;29;20049;-86
2024/01/22 04:50:57;;;;;;;82.65;78.60;;;8.40;99.90;;;;;;4828972;29;20099;-91
2024/01/22 04:53:23;;;;;;;56.13;54.03;;;8.40;99.90;;;;;;4826960;29;20053;-84
2024/01/22 04:55:49;;;;;;;58.00;55.75;;;8.40;99.90;;;;;;4828288;29;20050;-87
2024/01/22 04:58:14;;;;;;;42.90;41.30;;;8.40;99.90;;;;;;4848297;29;20515;-91
2024/01/22 05:00:40;;;;;;;105.28;100.00;;;8.50;99.90;;;;;;4845128;29;20437;-87
2024/01/22 05:03:06;;;;;;;58.33;56.03;;;8.60;99.90;;;;;;4835599;29;20049;-87
2024/01/22 05:05:32;;;;;;;39.97;38.53;;;8.60;99.90;;;;;;4836184;29;20050;-84
2024/01/22 05:07:58;;;;;;;70.82;68.03;;;8.60;99.90;;;;;;4833811;29;20037;-87
2024/01/22 05:10:24;;;;;;;78.97;75.65;;;8.60;99.90;;;;;;4847354;29;20073;-89
2024/01/22 05:12:49;;;;;;;52.97;51.00;;;8.70;99.90;;;;;;4852201;29;20046;-87
2024/01/22 05:15:15;;;;;;;46.95;45.25;;;8.70;99.90;;;;;;4834810;29;20049;-85
2024/01/22 05:17:41;;;;;;;34.33;33.08;;;8.70;99.90;;;;;;4844628;29;20054;-86
2024/01/22 05:20:08;;;;;;;75.05;71.63;;;8.70;99.90;;;;;;4847727;29;20078;-84
2024/01/22 05:22:35;;;;;;;91.45;87.05;;;8.80;99.90;;;;;;4850521;29;20048;-86
2024/01/22 05:25:01;;;;;;;56.33;54.15;;;8.90;99.90;;;;;;4850990;29;20042;-87
2024/01/22 05:27:28;;;;;;;46.13;44.35;;;9.00;99.90;;;;;;4835463;29;20080;-84
2024/01/22 05:29:54;;;;;;;41.90;40.17;;;9.10;99.90;;;;;;4829305;29;20086;-87
2024/01/22 05:32:20;;;;;;;40.67;39.15;;;9.00;99.90;;;;;;4825520;29;20054;-83
2024/01/22 05:34:45;;;;;;;48.72;46.85;;;9.00;99.90;;;;;;4848408;29;20522;-86
2024/01/22 05:37:11;;;;;;;38.50;37.10;;;9.10;99.90;;;;;;4846307;29;20042;-80
2024/01/22 05:39:37;;;;;;;69.30;66.72;;;9.10;99.90;;;;;;4850556;29;20080;-82
2024/01/22 05:42:06;;;;;;;68.30;65.80;;;9.00;99.90;;;;;;4817113;29;20077;-90
2024/01/22 05:44:31;;;;;;;79.18;76.05;;;9.20;99.90;;;;;;4844398;29;20046;-90
2024/01/22 05:46:57;;;;;;;69.97;67.30;;;9.30;99.90;;;;;;4830054;29;20072;-87
2024/01/22 05:49:23;;;;;;;53.33;51.33;;;9.40;99.90;;;;;;4844084;29;20050;-84
2024/01/22 05:51:49;;;;;;;52.17;50.30;;;9.50;99.90;;;;;;4829057;29;20099;-85
2024/01/22 05:54:15;;;;;;;49.50;47.65;;;9.50;99.90;;;;;;4830779;29;20050;-86
2024/01/22 05:56:41;;;;;;;56.33;54.33;;;9.50;99.90;;;;;;4847886;29;20437;-85
2024/01/22 05:59:07;;;;;;;53.47;51.58;;;9.60;99.90;;;;;;4843213;29;20133;-85
2024/01/22 06:01:33;;;;;;;54.38;52.38;;;9.60;99.90;;;;;;4845631;29;20077;-86
2024/01/22 06:03:59;;;;;;;51.08;49.28;;;9.70;99.90;;;;;;4835011;29;20434;-84
2024/01/22 06:06:25;;;;;;;47.42;45.72;;;9.70;99.90;;;;;;4849060;29;20053;-84
2024/01/22 06:08:51;;;;;;;44.08;42.58;;;9.70;99.90;;;;;;4835355;29;20115;-85
2024/01/22 06:11:18;;;;;;;49.47;47.78;;;9.70;99.90;;;;;;4830272;29;20042;-83
2024/01/22 06:13:44;;;;;;;59.45;57.17;;;9.70;99.90;;;;;;4828338;29;20617;-84
2024/01/22 06:16:14;;;;;;;53.90;51.90;;;9.70;99.90;;;;;;4846741;29;20056;-90
2024/01/22 06:18:41;;;;;;;56.05;54.05;;;9.60;99.90;;;;;;4817794;29;20058;-86
2024/01/22 06:21:11;;;;;;;75.78;72.90;;;9.60;99.90;;;;;;4838786;29;20054;-86
2024/01/22 06:23:36;;;;;;;68.50;66.07;;;9.60;99.90;;;;;;4837565;29;20053;-85
2024/01/22 06:26:02;;;;;;;56.42;54.45;;;9.60;99.90;;;;;;4846270;29;20049;-84
2024/01/22 06:28:30;;;;;;;54.40;52.38;;;9.70;99.90;;;;;;4837020;29;20454;-85
2024/01/22 06:30:57;;;;;;;58.85;56.80;;;9.60;99.90;;;;;;4816783;29;20073;-87
2024/01/22 06:33:23;;;;;;;86.85;83.40;;;9.60;99.90;;;;;;4848505;29;20074;-89
2024/01/22 06:35:49;;;;;;;58.78;56.65;;;9.70;99.90;;;;;;4830267;29;20074;-87
2024/01/22 06:38:18;;;;;;;58.35;56.15;;;9.80;99.90;;;;;;4839993;29;20042;-82
2024/01/22 06:40:44;;;;;;;58.47;56.40;;;9.80;99.90;;;;;;4848926;29;20630;-86
2024/01/22 06:43:10;;;;;;;79.72;76.78;;;9.80;99.90;;;;;;4847970;29;20101;-88
2024/01/22 06:45:36;;;;;;;56.33;54.42;;;9.80;99.90;;;;;;4829034;29;20066;-86
2024/01/22 06:48:02;;;;;;;156.07;147.75;;;9.80;99.90;;;;;;4848750;29;20053;-85
2024/01/22 06:50:29;;;;;;;110.85;106.15;;;9.90;99.90;;;;;;4831575;29;20042;-87
2024/01/22 06:52:54;;;;;;;58.17;56.17;;;9.90;99.90;;;;;;4848528;29;20061;-87
2024/01/22 06:55:22;;;;;;;67.30;64.90;;;9.90;99.90;;;;;;4849663;29;20046;-89
2024/01/22 06:57:47;;;;;;;156.23;148.65;;;9.80;99.90;;;;;;4820983;29;20043;-90
2024/01/22 07:00:15;;;;;;;66.90;64.55;;;9.80;99.90;;;;;;4847973;29;20070;-89
2024/01/22 07:02:43;;;;;;;50.45;48.65;;;9.80;99.90;;;;;;4822980;29;20077;-90
2024/01/22 07:05:12;;;;;;;54.13;52.22;;;9.80;99.90;;;;;;4827829;29;20054;-88
2024/01/22 07:07:39;;;;;;;46.63;44.85;;;9.80;99.90;;;;;;4839791;29;20046;-82
2024/01/22 07:10:07;;;;;;;50.88;48.92;;;9.70;99.90;;;;;;4833366;29;20056;-86
2024/01/22 07:12:36;;;;;;;56.22;54.22;;;9.70;99.90;;;;;;4846409;29;20058;-89
2024/01/22 07:15:04;;;;;;;49.38;47.45;;;9.70;99.90;;;;;;4860048;29;20534;-91
2024/01/22 07:17:30;;;;;;;50.70;48.88;;;9.80;99.90;;;;;;4859313;29;20081;-87
2024/01/22 07:19:56;;;;;;;50.53;48.50;;;9.80;99.90;;;;;;4824912;29;20046;-88
2024/01/22 07:22:22;;;;;;;50.95;49.03;;;9.80;99.90;;;;;;4821599;29;20463;-86
2024/01/22 07:24:48;;;;;;;53.97;51.97;;;9.80;99.90;;;;;;4818728;29;20138;-86
2024/01/22 07:27:13;;;;;;;50.97;48.85;;;9.80;99.90;;;;;;4835836;29;20058;-90
2024/01/22 07:29:39;;;;;;;51.88;49.47;;;9.90;99.90;;;;;;4831141;29;20042;-86
2024/01/22 07:32:06;;;;;;;49.83;47.88;;;9.90;99.90;;;;;;4837672;29;20066;-91
2024/01/22 07:34:32;;;;;;;72.47;69.45;;;10.00;99.90;;;;;;4846321;29;20042;-85
2024/01/22 07:36:58;;;;;;;83.97;80.60;;;10.10;99.90;;;;;;4847731;29;20046;-91
2024/01/22 07:39:23;;;;;;;70.50;67.40;;;10.20;99.90;;;;;;4827767;29;20155;-87
2024/01/22 07:41:49;;;;;;;59.08;56.45;;;10.20;99.90;;;;;;4840285;29;20046;-85
2024/01/22 07:44:15;;;;;;;69.80;66.82;;;10.20;99.90;;;;;;4844081;29;20053;-87
2024/01/22 07:46:40;;;;;;;99.28;93.93;;;10.20;99.90;;;;;;4847777;29;20117;-89
2024/01/22 07:49:07;;;;;;;48.42;46.63;;;10.30;99.90;;;;;;4837586;29;20050;-89
2024/01/22 07:51:35;;;;;;;58.47;55.72;;;10.30;99.90;;;;;;4848296;29;20140;-87
2024/01/22 07:54:01;;;;;;;52.42;49.97;;;10.40;99.90;;;;;;4832229;29;20057;-84
2024/01/22 07:56:28;;;;;;;63.05;59.13;;;10.40;99.90;;;;;;4836486;29;20057;-86
2024/01/22 07:58:53;;;;;;;66.05;62.13;;;10.40;99.90;;;;;;4822867;29;20038;-87
2024/01/22 08:01:19;;;;;;;44.88;42.72;;;10.40;99.90;;;;;;4825250;29;20049;-85
2024/01/22 08:03:45;;;;;;;48.97;46.70;;;10.50;99.90;;;;;;4846014;29;20081;-90
2024/01/22 08:06:11;;;;;;;56.58;53.97;;;10.50;99.90;;;;;;4817426;29;20046;-86
2024/01/22 08:08:39;;;;;;;50.83;48.60;;;10.50;99.90;;;;;;4830440;29;20054;-86
2024/01/22 08:11:05;;;;;;;62.58;59.90;;;10.50;99.90;;;;;;4846782;29;20415;-89
2024/01/22 08:13:30;;;;;;;44.35;42.45;;;10.50;99.90;;;;;;4822252;29;20044;-91
2024/01/22 08:15:56;;;;;;;40.17;38.42;;;10.60;99.90;;;;;;4832235;29;20052;-88
2024/01/22 08:18:22;;;;;;;44.08;42.28;;;10.60;99.90;;;;;;4832836;29;20046;-84
2024/01/22 08:20:48;;;;;;;49.78;47.70;;;10.60;99.90;;;;;;4827711;29;20050;-88
2024/01/22 08:23:14;;;;;;;57.92;55.70;;;10.50;99.90;;;;;;4832653;29;20061;-88
2024/01/22 08:25:40;;;;;;;64.55;61.65;;;10.50;99.90;;;;;;4825228;29;20042;-90
2024/01/22 08:28:06;;;;;;;71.90;68.93;;;10.40;99.90;;;;;;4839555;29;20054;-89
2024/01/22 08:30:32;;;;;;;64.50;62.00;;;10.40;99.90;;;;;;4851041;29;20099;-87
2024/01/22 08:32:58;;;;;;;58.42;55.80;;;10.30;99.90;;;;;;4843571;29;20054;-89
2024/01/22 08:35:24;;;;;;;54.60;52.33;;;10.30;99.90;;;;;;4831240;29;20047;-86
2024/01/22 08:37:55;;;;;;;56.08;53.97;;;10.20;99.90;;;;;;4852152;29;20480;-84
2024/01/22 08:40:22;;;;;;;72.30;69.50;;;10.20;99.90;;;;;;4833213;29;20050;-87
2024/01/22 08:42:53;;;;;;;76.57;73.60;;;10.30;99.90;;;;;;4827894;29;20042;-88
2024/01/22 08:45:21;;;;;;;57.30;55.15;;;10.30;99.90;;;;;;4848189;29;20077;-86
2024/01/22 08:47:50;;;;;;;52.58;50.65;;;10.20;99.90;;;;;;4827420;29;20058;-87
2024/01/22 08:50:23;;;;;;;477.75;256.10;;;10.20;99.90;;;;;;4839912;29;20041;-87
2024/01/22 08:52:49;;;;;;;67.70;65.00;;;10.20;99.90;;;;;;4831951;29;20109;-86
2024/01/22 08:55:16;;;;;;;59.40;57.00;;;10.20;99.90;;;;;;4832245;29;20133;-91
2024/01/22 08:57:45;;;;;;;77.43;74.32;;;10.20;99.90;;;;;;4831348;29;20053;-87
2024/01/22 09:00:11;;;;;;;53.30;51.00;;;10.20;99.90;;;;;;4850949;29;20046;-88
2024/01/22 09:02:39;;;;;;;50.97;48.78;;;10.20;99.90;;;;;;4832765;29;20065;-86
2024/01/22 09:05:10;;;;;;;56.47;54.10;;;10.10;99.90;;;;;;4850424;29;20061;-88
2024/01/22 09:07:36;;;;;;;54.47;52.47;;;10.10;99.90;;;;;;4834675;29;20113;-87
2024/01/22 09:10:06;;;;;;;50.83;48.58;;;10.00;99.90;;;;;;4831036;29;20045;-89
2024/01/22 09:12:36;;;;;;;48.45;46.10;;;10.00;99.90;;;;;;4849538;29;20050;-85
2024/01/22 09:15:06;;;;;;;50.35;47.88;;;10.00;99.90;;;;;;4831279;29;20057;-85
2024/01/22 09:17:33;;;;;;;51.88;49.35;;;9.90;99.90;;;;;;4849860;29;20046;-85
2024/01/22 09:19:59;;;;;;;49.15;47.25;;;9.90;99.90;;;;;;4848289;29;20050;-83
2024/01/22 09:22:28;;;;;;;46.85;44.90;;;9.90;99.90;;;;;;4849921;29;20319;-81
2024/01/22 09:24:54;;;;;;;44.22;42.47;;;9.90;99.90;;;;;;4834496;29;20129;-80
2024/01/22 09:27:20;;;;;;;46.00;44.00;;;9.80;99.90;;;;;;4847797;29;20053;-80
2024/01/22 09:29:46;;;;;;;40.17;38.47;;;9.80;99.90;;;;;;4843444;29;20041;-79
2024/01/22 09:32:12;;;;;;;46.15;44.05;;;9.80;99.90;;;;;;4846279;29;20109;-82
2024/01/22 09:34:38;;;;;;;38.95;36.75;;;9.80;99.90;;;;;;4847012;29;20046;-81
2024/01/22 09:37:05;;;;;;;40.75;38.40;;;9.70;99.90;;;;;;4829768;29;20077;-81
2024/01/22 09:39:32;;;;;;;51.00;48.80;;;9.70;99.90;;;;;;4846206;29;20041;-82
2024/01/22 09:41:58;;;;;;;53.47;50.95;;;9.70;99.90;;;;;;4831193;29;20406;-84
2024/01/22 09:44:25;;;;;;;48.72;46.30;;;9.60;99.90;;;;;;4846214;29;20436;-82
2024/01/22 09:46:51;;;;;;;48.92;46.35;;;9.60;99.90;;;;;;4843913;29;20070;-83
2024/01/22 09:49:18;;;;;;;44.88;42.70;;;9.60;99.90;;;;;;4844446;29;20053;-85
2024/01/22 09:51:44;;;;;;;41.33;39.25;;;9.60;99.90;;;;;;4847353;29;20153;-84
2024/01/22 09:54:22;;;;;;;43.85;41.22;;;9.60;99.90;;;;;;4843562;29;20046;-85
2024/01/22 09:56:52;;;;;;;44.67;42.47;;;9.60;99.90;;;;;;4830022;29;20060;-83
2024/01/22 09:59:23;;;;;;;41.40;39.30;;;9.60;99.90;;;;;;4845992;29;20141;-84
2024/01/22 10:01:50;;;;;;;41.38;39.33;;;9.60;99.90;;;;;;4829021;29;20105;-83
2024/01/22 10:04:17;;;;;;;45.22;42.75;;;9.60;99.90;;;;;;4829916;29;20477;-83
2024/01/22 10:06:45;;;;;;;43.28;40.47;;;9.60;99.90;;;;;;4844423;29;20073;-82
2024/01/22 10:09:15;;;;;;;43.08;40.10;;;9.60;99.90;;;;;;4831709;29;20038;-81
2024/01/22 10:11:46;;;;;;;43.80;40.47;;;9.60;99.90;;;;;;4829582;29;20065;-82
2024/01/22 10:14:12;;;;;;;40.30;37.88;;;9.70;99.90;;;;;;4829479;29;20142;-84
2024/01/22 10:16:38;;;;;;;35.03;32.35;;;9.70;99.90;;;;;;4845947;29;20037;-82
2024/01/22 10:19:07;;;;;;;36.20;34.25;;;9.70;99.90;;;;;;4840854;29;20046;-82
2024/01/22 10:21:37;;;;;;;39.95;37.28;;;9.80;99.90;;;;;;4845088;29;20046;-81
2024/01/22 10:24:06;;;;;;;36.10;33.63;;;9.80;99.90;;;;;;4842433;29;20492;-81
2024/01/22 10:26:32;;;;;;;35.00;32.30;;;9.90;99.90;;;;;;4831625;29;20041;-83
2024/01/22 10:29:18;;;;;;;25.88;23.80;;;9.80;99.90;;;;;;4830128;29;20049;-87
2024/01/22 10:31:59;;;;;;;30.50;26.67;;;9.80;99.90;;;;;;4845337;29;20054;-86
2024/01/22 10:34:28;;;;;;;22.20;19.92;;;9.90;99.90;;;;;;4829349;29;20121;-84
2024/01/22 10:37:07;;;;;;;23.05;17.30;;;9.80;99.90;;;;;;4835227;29;20038;-83
2024/01/22 10:39:34;;;;;;;22.83;20.63;;;9.90;99.90;;;;;;4846041;29;20042;-80
2024/01/22 10:42:08;;;;;;;23.73;21.40;;;9.90;99.90;;;;;;4846006;29;20052;-83
2024/01/22 10:44:38;;;;;;;26.02;23.35;;;10.00;99.90;;;;;;4844778;29;20465;-89
2024/01/22 10:47:05;;;;;;;20.42;18.40;;;10.00;99.90;;;;;;4829860;29;20054;-85
2024/01/22 10:49:34;;;;;;;23.42;21.38;;;9.90;99.90;;;;;;4845332;29;20057;-83
2024/01/22 10:52:00;;;;;;;25.80;20.45;;;9.90;99.90;;;;;;4833703;29;20081;-85
2024/01/22 10:54:30;;;;;;;22.17;20.15;;;9.80;99.90;;;;;;4833527;29;20049;-85
2024/01/22 10:57:10;;;;;;;26.15;21.38;;;9.80;99.90;;;;;;4833361;29;20052;-85
2024/01/22 10:59:38;;;;;;;22.05;19.20;;;9.80;99.90;;;;;;4832954;29;20085;-85
2024/01/22 11:02:06;;;;;;;21.55;19.33;;;9.80;99.90;;;;;;4831804;29;20045;-87
2024/01/22 11:04:45;;;;;;;21.48;16.58;;;9.80;99.90;;;;;;4849124;29;20052;-84
2024/01/22 11:07:12;;;;;;;16.88;15.15;;;9.80;99.90;;;;;;4832570;29;20077;-88
2024/01/22 11:09:39;;;;;;;18.98;16.20;;;9.80;99.90;;;;;;4848613;29;20067;-85
2024/01/22 11:12:19;;;;;;;20.27;15.95;;;9.80;99.90;;;;;;4832500;29;20190;-82
2024/01/22 11:14:45;;;;;;;16.00;14.65;;;9.80;99.90;;;;;;4832668;29;20054;-87
2024/01/22 11:17:13;;;;;;;18.92;12.73;;;9.80;99.90;;;;;;4834194;29;20054;-88
2024/01/22 11:19:38;;;;;;;17.60;9.95;;;9.80;99.90;;;;;;4832031;29;20054;-85
2024/01/22 11:22:21;;;;;;;16.67;14.25;;;9.80;99.90;;;;;;4833285;29;20377;-87
2024/01/22 11:25:01;;;;;;;14.20;12.27;;;9.90;99.90;;;;;;4831317;29;20046;-83
2024/01/22 11:28:02;;;;;;;15.45;10.40;;;10.20;99.90;;;;;;4846927;29;20049;-92
2024/01/22 11:30:32;;;;;;;18.45;9.27;;;10.30;99.90;;;;;;4848594;29;20069;-85
2024/01/22 11:32:58;;;;;;;19.60;7.70;;;10.40;99.90;;;;;;4847745;29;20089;-88
2024/01/22 11:35:37;;;;;;;18.60;7.53;;;10.30;99.90;;;;;;4846705;29;20622;-83
2024/01/22 11:38:04;;;;;;;15.13;7.32;;;10.30;99.90;;;;;;4847736;29;20050;-84
2024/01/22 11:40:55;;;;;;;17.42;10.07;;;10.20;99.90;;;;;;4847492;29;20050;-86
2024/01/22 11:43:22;;;;;;;14.07;9.15;;;10.20;99.90;;;;;;4833845;29;20505;-89
2024/01/22 11:45:51;;;;;;;14.82;8.88;;;10.10;99.90;;;;;;4831702;29;20307;-88
2024/01/22 11:48:21;;;;;;;13.60;10.10;;;10.10;99.90;;;;;;4830256;29;20091;-89
2024/01/22 11:51:04;;;;;;;18.75;8.25;;;10.10;99.90;;;;;;4831141;29;20170;-85
2024/01/22 11:53:31;;;;;;;13.50;7.18;;;10.10;99.90;;;;;;4845459;29;20076;-88
2024/01/22 11:56:04;;;;;;;15.85;8.23;;;10.10;99.90;;;;;;4832785;29;20543;-83
2024/01/22 11:58:34;;;;;;;15.75;7.47;;;10.10;99.90;;;;;;4843441;29;20060;-87
2024/01/22 12:01:02;;;;;;;19.20;6.65;;;10.10;99.90;;;;;;4830754;29;20057;-85
2024/01/22 12:03:29;;;;;;;12.20;6.32;;;10.10;99.90;;;;;;4846672;29;20707;-89
2024/01/22 12:06:02;;;;;;;17.30;6.32;;;10.10;99.90;;;;;;4845768;29;20436;-87
2024/01/22 12:08:28;;;;;;;17.95;5.93;;;10.10;99.90;;;;;;4833766;29;20417;-83
2024/01/22 12:11:13;;;;;;;12.05;6.60;;;10.00;99.90;;;;;;4829372;29;20038;-88
2024/01/22 12:13:43;;;;;;;14.25;7.63;;;9.90;99.90;;;;;;4830445;29;20633;-87
2024/01/22 12:16:27;;;;;;;15.82;6.85;;;9.90;99.90;;;;;;4847161;29;20064;-84
2024/01/22 12:18:52;;;;;;;15.60;6.55;;;9.80;99.90;;;;;;4829683;29;20175;-85
2024/01/22 12:21:20;;;;;;;11.57;7.00;;;9.80;99.90;;;;;;4832798;29;20048;-85
2024/01/22 12:23:46;;;;;;;14.88;5.85;;;9.80;99.90;;;;;;4830443;29;20074;-89
2024/01/22 12:26:13;;;;;;;14.60;6.63;;;9.80;99.90;;;;;;4835052;29;20042;-89
2024/01/22 12:28:40;;;;;;;6.47;4.95;;;9.80;99.90;;;;;;4826660;29;20061;-83
2024/01/22 12:31:05;;;;;;;11.88;5.45;;;9.90;99.90;;;;;;4845205;29;20069;-86
2024/01/22 12:33:33;;;;;;;14.40;6.30;;;10.00;99.90;;;;;;4846678;29;20042;-85
2024/01/22 12:36:09;;;;;;;12.50;5.05;;;10.10;99.90;;;;;;4831378;29;20080;-87